| time (UTC) | temp F | wind direction | speed MPH | gust MPH | rain 1hr in | rain 24hr in | rain mn in | humidity % | barometer mb |
| 20260505173648 | 67 | 124 | 2.0 | 6.0 | 0.00 | 0.00 | 0.00 | 38 | 1009.7 |
| 20260505173142 | 67 | 100 | 2.0 | 6.0 | 0.00 | 0.00 | 0.00 | 47 | 1009.6 |
| 20260505172636 | 66 | 148 | 2.0 | 5.0 | 0.00 | 0.00 | 0.00 | 40 | 1009.7 |
| 20260505172130 | 67 | 189 | 2.0 | 8.0 | 0.00 | 0.00 | 0.00 | 44 | 1009.7 |
| 20260505171624 | 66 | 320 | 2.0 | 8.0 | 0.00 | 0.00 | 0.00 | 44 | 1009.7 |
| 20260505171130 | 67 | 151 | 1.0 | 5.0 | 0.00 | 0.00 | 0.00 | 46 | 1009.6 |
| 20260505170612 | 69 | 262 | 1.0 | 5.0 | 0.00 | 0.00 | 0.00 | 41 | 1009.6 |
| 20260505170108 | 68 | 50 | 1.0 | 5.0 | 0.00 | 0.00 | 0.00 | 40 | 1009.4 |
| 20260505165600 | 67 | 201 | 2.0 | 7.0 | 0.00 | 0.00 | 0.00 | 45 | 1009.4 |
| 20260505165056 | 68 | 169 | 2.0 | 7.0 | 0.00 | 0.00 | 0.00 | 39 | 1009.6 |
| 20260505164548 | 68 | 162 | 2.0 | 9.0 | 0.00 | 0.00 | 0.00 | 41 | 1009.4 |
| 20260505164042 | 68 | 122 | 2.0 | 9.0 | 0.00 | 0.00 | 0.00 | 40 | 1009.4 |
| 20260505164027 | 69 | 193 | 2.0 | 6.0 | 0.00 | 0.00 | 0.00 | 38 | 1009.4 |
| 20260505163029 | 68 | 202 | 3.0 | 8.0 | 0.00 | 0.00 | 0.00 | 37 | 1009.4 |
| 20260505162745 | 68 | 208 | 4.0 | 10.0 | 0.00 | 0.00 | 0.00 | 40 | 1009.4 |
| 20260505162017 | 68 | 191 | 4.0 | 10.0 | 0.00 | 0.00 | 0.00 | 39 | 1009.4 |
| 20260505161735 | 67 | 198 | 3.0 | 8.0 | 0.00 | 0.00 | 0.00 | 40 | 1009.4 |
| 20260505161227 | 67 | 222 | 3.0 | 8.0 | 0.00 | 0.00 | 0.00 | 40 | 1009.2 |
| 20260505160459 | 66 | 216 | 3.0 | 8.0 | 0.00 | 0.00 | 0.00 | 44 | 1009.3 |
| 20260505152917 | 62 | 198 | 3.0 | 7.0 | 0.00 | 0.00 | 0.00 | 50 | 1008.9 |
| 20260505152411 | 61 | 179 | 3.0 | 8.0 | 0.00 | 0.00 | 0.00 | 52 | 1008.9 |
| 20260505151905 | 60 | 152 | 3.0 | 8.0 | 0.00 | 0.00 | 0.00 | 53 | 1008.9 |
| 20260505151400 | 60 | 186 | 3.0 | 9.0 | 0.00 | 0.00 | 0.00 | 56 | 1008.8 |
| 20260505150854 | 59 | 138 | 4.0 | 9.0 | 0.00 | 0.00 | 0.00 | 58 | 1008.8 |
| 20260505150347 | 58 | 183 | 4.0 | 6.0 | 0.00 | 0.00 | 0.00 | 59 | 1008.7 |
| 20260505140248 | 50 | 105 | 1.0 | 5.0 | 0.00 | 0.00 | 0.00 | 73 | 1008.4 |
| 20260505130123 | 50 | 92 | 0.0 | 2.0 | 0.00 | 0.00 | 0.00 | 70 | 1007.2 |
| 20260505124601 | 50 | 110 | 1.0 | 4.0 | 0.00 | 0.00 | 0.00 | 69 | 1007.1 |
| 20260505124108 | 50 | 98 | 1.0 | 3.0 | 0.00 | 0.00 | 0.00 | 69 | 1007.0 |
| 20260505123549 | 50 | 97 | 1.0 | 3.0 | 0.00 | 0.00 | 0.00 | 69 | 1006.6 |
| 20260505123314 | 50 | 97 | 0.0 | 3.0 | 0.00 | 0.00 | 0.00 | 69 | 1006.6 |
| 20260505122537 | 50 | 127 | 0.0 | 0.0 | 0.00 | 0.00 | 0.00 | 69 | 1006.5 |
| 20260505122032 | 50 | 127 | 0.0 | 0.0 | 0.00 | 0.00 | 0.00 | 68 | 1006.4 |
| 20260505121526 | 51 | 147 | 0.0 | 0.0 | 0.00 | 0.00 | 0.00 | 68 | 1006.4 |
| 20260505121020 | 51 | 100 | 0.0 | 0.0 | 0.00 | 0.00 | 0.00 | 68 | 1006.1 |
| 20260505120513 | 51 | 118 | 0.0 | 2.0 | 0.00 | 0.00 | 0.00 | 68 | 1006.0 |
| 20260505120008 | 51 | 147 | 1.0 | 2.0 | 0.00 | 0.00 | 0.00 | 68 | 1005.9 |
| 20260505115501 | 51 | 127 | 1.0 | 2.0 | 0.00 | 0.00 | 0.00 | 68 | 1005.9 |
| 20260505114955 | 51 | 127 | 1.0 | 3.0 | 0.00 | 0.00 | 0.00 | 67 | 1005.9 |
| 20260505114449 | 51 | 118 | 1.0 | 3.0 | 0.00 | 0.00 | 0.00 | 67 | 1005.8 |
| 20260505114211 | 51 | 119 | 0.0 | 2.0 | 0.00 | 0.00 | 0.00 | 66 | 1005.8 |
| 20260505113438 | 52 | 119 | 0.0 | 2.0 | 0.00 | 0.00 | 0.00 | 66 | 1005.8 |
| 20260505112932 | 52 | 119 | 0.0 | 2.0 | 0.00 | 0.00 | 0.00 | 66 | 1005.8 |
| 20260505112425 | 52 | 122 | 0.0 | 2.0 | 0.00 | 0.00 | 0.00 | 65 | 1005.6 |
| 20260505112402 | 52 | 122 | 0.0 | 2.0 | 0.00 | 0.00 | 0.00 | 65 | 1005.6 |
| 20260505111416 | 52 | 118 | 1.0 | 2.0 | 0.00 | 0.00 | 0.00 | 65 | 1005.4 |
| 20260505111358 | 53 | 118 | 1.0 | 2.0 | 0.00 | 0.00 | 0.00 | 64 | 1005.2 |
| 20260505110407 | 53 | 118 | 0.0 | 2.0 | 0.00 | 0.00 | 0.00 | 64 | 1005.2 |
| 20260505101807 | 55 | 119 | 0.0 | 3.0 | 0.00 | 0.00 | 0.00 | 58 | 1004.7 |
| 20260505101301 | 56 | 119 | 0.0 | 3.0 | 0.00 | 0.00 | 0.00 | 58 | 1004.6 |
| 20260505100756 | 56 | 166 | 0.0 | 1.0 | 0.00 | 0.00 | 0.00 | 56 | 1004.4 |
| 20260505100249 | 56 | 166 | 0.0 | 0.0 | 0.00 | 0.00 | 0.00 | 56 | 1004.1 |
| 20260505095743 | 57 | 166 | 0.0 | 0.0 | 0.00 | 0.00 | 0.00 | 55 | 1004.1 |
| 20260505095458 | 57 | 166 | 0.0 | 0.0 | 0.00 | 0.00 | 0.00 | 54 | 1004.1 |
| 20260505094732 | 57 | 166 | 0.0 | 1.0 | 0.00 | 0.00 | 0.00 | 54 | 1004.0 |
| 20260505094225 | 57 | 166 | 0.0 | 1.0 | 0.00 | 0.00 | 0.00 | 53 | 1004.0 |
| 20260505093719 | 57 | 166 | 0.0 | 3.0 | 0.00 | 0.00 | 0.00 | 53 | 1003.9 |
| 20260505093213 | 58 | 166 | 1.0 | 3.0 | 0.00 | 0.00 | 0.00 | 53 | 1003.9 |
| 20260505092707 | 58 | 163 | 1.0 | 3.0 | 0.00 | 0.00 | 0.00 | 53 | 1004.0 |
| 20260505092203 | 58 | 342 | 0.0 | 3.0 | 0.00 | 0.00 | 0.00 | 52 | 1003.8 |
| 20260505091655 | 58 | 342 | 0.0 | 2.0 | 0.00 | 0.00 | 0.00 | 51 | 1003.6 |
| 20260505091151 | 59 | 342 | 0.0 | 2.0 | 0.00 | 0.00 | 0.00 | 51 | 1003.5 |
| 20260505090644 | 59 | 331 | 0.0 | 3.0 | 0.00 | 0.00 | 0.00 | 51 | 1003.4 |
| 20260505090137 | 59 | 318 | 0.0 | 3.0 | 0.00 | 0.00 | 0.00 | 51 | 1003.4 |
| 20260505085631 | 59 | 314 | 1.0 | 3.0 | 0.00 | 0.00 | 0.00 | 51 | 1003.3 |
| 20260505085348 | 60 | 314 | 1.0 | 4.0 | 0.00 | 0.00 | 0.00 | 51 | 1003.3 |
| 20260505084619 | 60 | 317 | 1.0 | 4.0 | 0.00 | 0.00 | 0.00 | 50 | 1003.3 |
| 20260505084113 | 60 | 339 | 1.0 | 4.0 | 0.00 | 0.00 | 0.00 | 50 | 1003.3 |
| 20260505083607 | 60 | 297 | 0.0 | 4.0 | 0.00 | 0.00 | 0.00 | 50 | 1003.3 |
| 20260505083101 | 61 | 304 | 0.0 | 2.0 | 0.00 | 0.00 | 0.00 | 50 | 1003.2 |
| 20260505082555 | 61 | 304 | 1.0 | 3.0 | 0.00 | 0.00 | 0.00 | 49 | 1003.2 |
| 20260505082049 | 61 | 337 | 1.0 | 3.0 | 0.00 | 0.00 | 0.00 | 48 | 1003.2 |
| 20260505081544 | 62 | 324 | 0.0 | 2.0 | 0.00 | 0.00 | 0.00 | 48 | 1003.2 |
| 20260505081258 | 62 | 316 | 1.0 | 3.0 | 0.00 | 0.00 | 0.00 | 48 | 1003.2 |
| 20260505080758 | 62 | 316 | 2.0 | 3.0 | 0.00 | 0.00 | 0.00 | 47 | 1003.2 |
| 20260505080027 | 62 | 307 | 1.0 | 4.0 | 0.00 | 0.00 | 0.00 | 47 | 1003.2 |
| 20260505075519 | 62 | 332 | 2.0 | 5.0 | 0.00 | 0.00 | 0.00 | 47 | 1003.2 |
| 20260505075014 | 62 | 314 | 2.0 | 5.0 | 0.00 | 0.00 | 0.00 | 47 | 1003.2 |
| 20260505074507 | 62 | 325 | 2.0 | 5.0 | 0.00 | 0.00 | 0.00 | 47 | 1003.2 |
| 20260505074001 | 62 | 341 | 2.0 | 5.0 | 0.00 | 0.00 | 0.00 | 47 | 1003.1 |
| 20260505073718 | 62 | 354 | 3.0 | 7.0 | 0.00 | 0.00 | 0.00 | 48 | 1003.1 |
| 20260505072949 | 62 | 323 | 3.0 | 7.0 | 0.00 | 0.00 | 0.00 | 47 | 1003.2 |
| 20260505072446 | 62 | 346 | 2.0 | 4.0 | 0.00 | 0.00 | 0.00 | 48 | 1003.2 |
| 20260505071945 | 62 | 330 | 2.0 | 4.0 | 0.00 | 0.00 | 0.00 | 48 | 1003.1 |
| 20260505071445 | 62 | 327 | 1.0 | 4.0 | 0.00 | 0.00 | 0.00 | 47 | 1003.2 |
| 20260505071208 | 62 | 312 | 1.0 | 3.0 | 0.00 | 0.00 | 0.00 | 48 | 1003.2 |
| 20260505070704 | 62 | 314 | 1.0 | 3.0 | 0.00 | 0.00 | 0.00 | 47 | 1003.2 |
| 20260505065943 | 62 | 4 | 0.0 | 3.0 | 0.00 | 0.00 | 0.00 | 47 | 1003.1 |
| 20260505065445 | 62 | 339 | 0.0 | 3.0 | 0.00 | 0.00 | 0.00 | 47 | 1003.0 |
| 20260505064939 | 62 | 317 | 0.0 | 2.0 | 0.00 | 0.00 | 0.00 | 46 | 1002.8 |
| 20260505064439 | 62 | 317 | 1.0 | 2.0 | 0.00 | 0.00 | 0.00 | 46 | 1002.7 |
| 20260505063940 | 62 | 355 | 2.0 | 5.0 | 0.00 | 0.00 | 0.00 | 46 | 1002.7 |
| 20260505063658 | 63 | 352 | 3.0 | 8.0 | 0.00 | 0.00 | 0.00 | 45 | 1002.6 |
| 20260505062937 | 63 | 352 | 3.0 | 8.0 | 0.00 | 0.00 | 0.00 | 44 | 1002.6 |
| 20260505062437 | 63 | 5 | 2.0 | 5.0 | 0.00 | 0.00 | 0.00 | 44 | 1002.6 |
| 20260505061938 | 63 | 321 | 1.0 | 3.0 | 0.00 | 0.00 | 0.00 | 45 | 1002.6 |
| 20260505061438 | 64 | 341 | 0.0 | 3.0 | 0.00 | 0.00 | 0.00 | 44 | 1002.7 |
| 20260505060937 | 64 | 327 | 1.0 | 3.0 | 0.00 | 0.00 | 0.00 | 43 | 1002.7 |
| 20260505060438 | 65 | 258 | 0.0 | 2.0 | 0.00 | 0.00 | 0.00 | 42 | 1002.7 |
| 20260505055937 | 65 | 215 | 0.0 | 1.0 | 0.00 | 0.00 | 0.00 | 41 | 1002.7 |
| 20260505055656 | 66 | 215 | 1.0 | 2.0 | 0.00 | 0.00 | 0.00 | 41 | 1002.7 |
| 20260505054928 | 66 | 215 | 1.0 | 2.0 | 0.00 | 0.00 | 0.00 | 40 | 1002.6 |
| 20260505054646 | 67 | 215 | 0.0 | 2.0 | 0.00 | 0.00 | 0.00 | 39 | 1002.5 |
| 20260505053917 | 67 | 223 | 1.0 | 3.0 | 0.00 | 0.00 | 0.00 | 39 | 1002.5 |
| 20260505053410 | 67 | 223 | 0.0 | 3.0 | 0.00 | 0.00 | 0.00 | 38 | 1002.4 |
| 20260505052904 | 68 | 343 | 0.0 | 2.0 | 0.00 | 0.00 | 0.00 | 37 | 1002.3 |
| 20260505052358 | 68 | 277 | 0.0 | 5.0 | 0.00 | 0.00 | 0.00 | 37 | 1002.3 |
| 20260505051852 | 69 | 343 | 1.0 | 5.0 | 0.00 | 0.00 | 0.00 | 37 | 1002.3 |
| 20260505051346 | 69 | 325 | 2.0 | 6.0 | 0.00 | 0.00 | 0.00 | 36 | 1002.3 |
| 20260505050840 | 69 | 328 | 2.0 | 6.0 | 0.00 | 0.00 | 0.00 | 35 | 1002.3 |
| 20260505050335 | 69 | 316 | 2.0 | 5.0 | 0.00 | 0.00 | 0.00 | 35 | 1002.3 |
| 20260505041741 | 70 | 1 | 4.0 | 10.0 | 0.00 | 0.00 | 0.00 | 33 | 1002.3 |
| 20260505041234 | 70 | 351 | 4.0 | 9.0 | 0.00 | 0.00 | 0.00 | 33 | 1002.3 |
| 20260505040951 | 70 | 338 | 4.0 | 9.0 | 0.00 | 0.00 | 0.00 | 34 | 1002.3 |
| 20260505040223 | 70 | 323 | 3.0 | 7.0 | 0.00 | 0.00 | 0.00 | 34 | 1002.3 |
| 20260505035720 | 70 | 338 | 3.0 | 8.0 | 0.00 | 0.00 | 0.00 | 34 | 1002.3 |
| 20260505035220 | 70 | 337 | 3.0 | 8.0 | 0.00 | 0.00 | 0.00 | 34 | 1002.2 |
| 20260505034720 | 70 | 331 | 2.0 | 6.0 | 0.00 | 0.00 | 0.00 | 34 | 1002.3 |
| 20260505034217 | 70 | 359 | 2.0 | 6.0 | 0.00 | 0.00 | 0.00 | 34 | 1002.2 |
| 20260505033716 | 71 | 358 | 2.0 | 6.0 | 0.00 | 0.00 | 0.00 | 34 | 1002.2 |
| 20260505033216 | 71 | 329 | 2.0 | 5.0 | 0.00 | 0.00 | 0.00 | 35 | 1002.2 |
| 20260505032715 | 72 | 340 | 2.0 | 5.0 | 0.00 | 0.00 | 0.00 | 36 | 1002.2 |
| 20260505032438 | 72 | 354 | 1.0 | 5.0 | 0.00 | 0.00 | 0.00 | 36 | 1002.1 |
| 20260505031715 | 73 | 340 | 0.0 | 3.0 | 0.00 | 0.00 | 0.00 | 36 | 1002.1 |
| 20260505031213 | 74 | 333 | 0.0 | 0.0 | 0.00 | 0.00 | 0.00 | 35 | 1002.1 |
| 20260505030943 | 74 | 333 | 0.0 | 1.0 | 0.00 | 0.00 | 0.00 | 35 | 1001.9 |
| 20260505030213 | 75 | 333 | 0.0 | 2.0 | 0.00 | 0.00 | 0.00 | 35 | 1001.9 |
| 20260505025711 | 76 | 329 | 0.0 | 2.0 | 0.00 | 0.00 | 0.00 | 34 | 1001.8 |
| 20260505025209 | 76 | 329 | 1.0 | 3.0 | 0.00 | 0.00 | 0.00 | 32 | 1001.8 |
| 20260505024708 | 76 | 326 | 2.0 | 6.0 | 0.00 | 0.00 | 0.00 | 31 | 1001.7 |
| 20260505024206 | 77 | 326 | 3.0 | 6.0 | 0.00 | 0.00 | 0.00 | 31 | 1001.6 |
| 20260505023705 | 77 | 339 | 3.0 | 13.0 | 0.00 | 0.00 | 0.00 | 30 | 1001.6 |
| 20260505023206 | 77 | 324 | 4.0 | 13.0 | 0.00 | 0.00 | 0.00 | 30 | 1001.6 |
| 20260505022706 | 77 | 10 | 3.0 | 12.0 | 0.00 | 0.00 | 0.00 | 30 | 1001.4 |
| 20260505022159 | 78 | 329 | 3.0 | 7.0 | 0.00 | 0.00 | 0.00 | 30 | 1001.4 |
| 20260505021912 | 78 | 354 | 4.0 | 11.0 | 0.00 | 0.00 | 0.00 | 30 | 1001.4 |
| 20260505021148 | 78 | 19 | 5.0 | 15.0 | 0.00 | 0.00 | 0.00 | 29 | 1001.4 |
| 20260505020642 | 78 | 0 | 4.0 | 15.0 | 0.00 | 0.00 | 0.00 | 30 | 1001.3 |
| 20260505020135 | 78 | 341 | 4.0 | 10.0 | 0.00 | 0.00 | 0.00 | 30 | 1001.4 |
| 20260505015851 | 79 | 337 | 4.0 | 13.0 | 0.00 | 0.00 | 0.00 | 30 | 1001.4 |
| 20260505015124 | 79 | 343 | 4.0 | 13.0 | 0.00 | 0.00 | 0.00 | 29 | 1001.6 |
| 20260505014617 | 79 | 310 | 3.0 | 10.0 | 0.00 | 0.00 | 0.00 | 29 | 1001.6 |
| 20260505014111 | 79 | 337 | 4.0 | 9.0 | 0.00 | 0.00 | 0.00 | 29 | 1001.6 |
| 20260505013606 | 79 | 358 | 6.0 | 17.0 | 0.00 | 0.00 | 0.00 | 28 | 1001.6 |
| 20260505013101 | 80 | 329 | 6.0 | 17.0 | 0.00 | 0.00 | 0.00 | 28 | 1001.7 |
| 20260505012554 | 80 | 346 | 6.0 | 13.0 | 0.00 | 0.00 | 0.00 | 27 | 1001.7 |
| 20260505012311 | 80 | 316 | 5.0 | 13.0 | 0.00 | 0.00 | 0.00 | 27 | 1001.7 |
| 20260505011541 | 81 | 356 | 7.0 | 14.0 | 0.00 | 0.00 | 0.00 | 27 | 1001.7 |
| 20260505011035 | 81 | 344 | 8.0 | 18.0 | 0.00 | 0.00 | 0.00 | 26 | 1001.7 |
| 20260505010530 | 81 | 352 | 7.0 | 18.0 | 0.00 | 0.00 | 0.00 | 25 | 1001.7 |
| 20260505010024 | 82 | 330 | 6.0 | 15.0 | 0.00 | 0.00 | 0.00 | 25 | 1001.8 |
| 20260505005517 | 82 | 359 | 6.0 | 15.0 | 0.00 | 0.00 | 0.00 | 25 | 1001.8 |
| 20260505005011 | 81 | 327 | 5.0 | 13.0 | 0.00 | 0.00 | 0.00 | 25 | 1001.9 |
| 20260505004506 | 81 | 3 | 6.0 | 16.0 | 0.00 | 0.00 | 0.00 | 25 | 1002.0 |
| 20260505003959 | 81 | 4 | 7.0 | 16.0 | 0.00 | 0.00 | 0.00 | 24 | 1001.9 |
| 20260505003453 | 81 | 323 | 6.0 | 15.0 | 0.00 | 0.00 | 0.00 | 23 | 1002.2 |
| 20260505002947 | 81 | 35 | 6.0 | 14.0 | 0.00 | 0.00 | 0.00 | 23 | 1002.2 |
| 20260505002442 | 80 | 340 | 7.0 | 17.0 | 0.00 | 0.00 | 0.00 | 23 | 1002.3 |
| 20260505001935 | 80 | 334 | 7.0 | 17.0 | 0.00 | 0.00 | 0.00 | 22 | 1002.3 |
| 20260505001429 | 80 | 17 | 6.0 | 15.0 | 0.00 | 0.00 | 0.00 | 22 | 1002.3 |
| 20260505000923 | 80 | 300 | 6.0 | 16.0 | 0.00 | 0.00 | 0.00 | 22 | 1002.3 |
| 20260505000420 | 80 | 342 | 8.0 | 16.0 | 0.00 | 0.00 | 0.00 | 21 | 1002.3 |
| 20260504235919 | 80 | 358 | 8.0 | 16.0 | 0.00 | 0.00 | 0.00 | 22 | 1002.3 |
| 20260504235419 | 80 | 21 | 6.0 | 15.0 | 0.00 | 0.00 | 0.00 | 22 | 1002.3 |
| 20260504235145 | 80 | 323 | 6.0 | 14.0 | 0.00 | 0.00 | 0.00 | 22 | 1002.3 |
| 20260504234417 | 80 | 335 | 5.0 | 14.0 | 0.00 | 0.00 | 0.00 | 23 | 1002.4 |
| 20260504233917 | 80 | 316 | 5.0 | 11.0 | 0.00 | 0.00 | 0.00 | 24 | 1002.4 |
| 20260504233416 | 80 | 316 | 6.0 | 15.0 | 0.00 | 0.00 | 0.00 | 24 | 1002.5 |
| 20260504232916 | 80 | 23 | 5.0 | 15.0 | 0.00 | 0.00 | 0.00 | 24 | 1002.6 |
| 20260504232415 | 80 | 332 | 4.0 | 10.0 | 0.00 | 0.00 | 0.00 | 25 | 1002.5 |
| 20260504231913 | 80 | 321 | 5.0 | 14.0 | 0.00 | 0.00 | 0.00 | 26 | 1002.5 |
| 20260504231413 | 80 | 277 | 6.0 | 14.0 | 0.00 | 0.00 | 0.00 | 26 | 1002.6 |
| 20260504230913 | 80 | 356 | 5.0 | 15.0 | 0.00 | 0.00 | 0.00 | 26 | 1002.7 |
| 20260504230411 | 80 | 309 | 6.0 | 15.0 | 0.00 | 0.00 | 0.00 | 28 | 1002.8 |
| 20260504225911 | 80 | 326 | 5.0 | 15.0 | 0.00 | 0.00 | 0.00 | 27 | 1002.8 |
| 20260504225411 | 80 | 324 | 5.0 | 16.0 | 0.00 | 0.00 | 0.00 | 27 | 1002.8 |
| 20260504224911 | 80 | 329 | 7.0 | 16.0 | 0.00 | 0.00 | 0.00 | 27 | 1002.8 |
| 20260504224411 | 80 | 333 | 6.0 | 15.0 | 0.00 | 0.00 | 0.00 | 27 | 1002.8 |
| 20260504223911 | 79 | 323 | 5.0 | 14.0 | 0.00 | 0.00 | 0.00 | 28 | 1003.0 |
| 20260504223405 | 79 | 301 | 5.0 | 14.0 | 0.00 | 0.00 | 0.00 | 28 | 1003.1 |
| 20260504222859 | 79 | 349 | 4.0 | 13.0 | 0.00 | 0.00 | 0.00 | 29 | 1003.2 |
| 20260504222354 | 79 | 331 | 4.0 | 13.0 | 0.00 | 0.00 | 0.00 | 30 | 1003.3 |
| 20260504221847 | 79 | 314 | 4.0 | 12.0 | 0.00 | 0.00 | 0.00 | 29 | 1003.3 |
| 20260504221345 | 79 | 354 | 3.0 | 12.0 | 0.00 | 0.00 | 0.00 | 30 | 1003.4 |
| 20260504220846 | 79 | 351 | 4.0 | 10.0 | 0.00 | 0.00 | 0.00 | 30 | 1003.5 |
| 20260504220343 | 79 | 42 | 5.0 | 11.0 | 0.00 | 0.00 | 0.00 | 30 | 1003.6 |
| 20260504215845 | 79 | 323 | 4.0 | 11.0 | 0.00 | 0.00 | 0.00 | 30 | 1003.7 |
| 20260504215343 | 79 | 345 | 3.0 | 11.0 | 0.00 | 0.00 | 0.00 | 31 | 1003.8 |
| 20260504214844 | 78 | 318 | 4.0 | 11.0 | 0.00 | 0.00 | 0.00 | 31 | 1003.8 |
| 20260504214609 | 78 | 246 | 3.0 | 9.0 | 0.00 | 0.00 | 0.00 | 31 | 1003.8 |
| 20260504214101 | 78 | 71 | 4.0 | 11.0 | 0.00 | 0.00 | 0.00 | 31 | 1003.9 |
| 20260504213344 | 78 | 348 | 4.0 | 11.0 | 0.00 | 0.00 | 0.00 | 31 | 1004.0 |
| 20260504212843 | 78 | 0 | 3.0 | 10.0 | 0.00 | 0.00 | 0.00 | 31 | 1004.1 |
| 20260504212343 | 78 | 292 | 3.0 | 10.0 | 0.00 | 0.00 | 0.00 | 32 | 1004.4 |
| 20260504211844 | 78 | 300 | 3.0 | 9.0 | 0.00 | 0.00 | 0.00 | 33 | 1004.4 |
| 20260504211343 | 78 | 310 | 4.0 | 12.0 | 0.00 | 0.00 | 0.00 | 32 | 1004.4 |
| 20260504210846 | 78 | 314 | 3.0 | 12.0 | 0.00 | 0.00 | 0.00 | 32 | 1004.6 |
| 20260504210346 | 78 | 339 | 4.0 | 11.0 | 0.00 | 0.00 | 0.00 | 35 | 1004.6 |
| 20260504210106 | 78 | 317 | 4.0 | 11.0 | 0.00 | 0.00 | 0.00 | 33 | 1004.6 |
| 20260504205954 | 77 | 329 | 4.0 | 11.0 | 0.00 | 0.00 | 0.00 | 35 | 1004.6 |
| 20260504205548 | 77 | 338 | 6.0 | 11.0 | 0.00 | 0.00 | 0.00 | 34 | 1004.7 |
| 20260504204341 | 77 | 335 | 5.0 | 11.0 | 0.00 | 0.00 | 0.00 | 34 | 1004.8 |
| 20260504203841 | 77 | 358 | 5.0 | 13.0 | 0.00 | 0.00 | 0.00 | 35 | 1004.7 |
| 20260504203558 | 76 | 2 | 5.0 | 14.0 | 0.00 | 0.00 | 0.00 | 35 | 1004.9 |
| 20260504202841 | 77 | 344 | 3.0 | 14.0 | 0.00 | 0.00 | 0.00 | 36 | 1005.1 |
| 20260504202341 | 77 | 336 | 3.0 | 9.0 | 0.00 | 0.00 | 0.00 | 35 | 1005.0 |
| 20260504201841 | 76 | 303 | 3.0 | 9.0 | 0.00 | 0.00 | 0.00 | 36 | 1005.1 |
| 20260504201341 | 77 | 325 | 3.0 | 11.0 | 0.00 | 0.00 | 0.00 | 37 | 1005.2 |
| 20260504201103 | 76 | 352 | 4.0 | 13.0 | 0.00 | 0.00 | 0.00 | 35 | 1005.2 |
| 20260504200342 | 76 | 237 | 3.0 | 13.0 | 0.00 | 0.00 | 0.00 | 36 | 1005.3 |
| 20260504195842 | 76 | 336 | 4.0 | 13.0 | 0.00 | 0.00 | 0.00 | 36 | 1005.4 |
| 20260504195610 | 76 | 330 | 4.0 | 13.0 | 0.00 | 0.00 | 0.00 | 34 | 1005.4 |
| 20260504194842 | 76 | 323 | 2.0 | 9.0 | 0.00 | 0.00 | 0.00 | 35 | 1005.6 |
| 20260504194342 | 76 | 313 | 1.0 | 7.0 | 0.00 | 0.00 | 0.00 | 38 | 1005.6 |
| 20260504193842 | 76 | 301 | 1.0 | 5.0 | 0.00 | 0.00 | 0.00 | 37 | 1005.7 |
| 20260504193342 | 76 | 277 | 2.0 | 10.0 | 0.00 | 0.00 | 0.00 | 36 | 1005.7 |
| 20260504192842 | 75 | 289 | 3.0 | 10.0 | 0.00 | 0.00 | 0.00 | 36 | 1005.7 |
| 20260504192343 | 75 | 329 | 3.0 | 7.0 | 0.00 | 0.00 | 0.00 | 37 | 1005.8 |
| 20260504191842 | 75 | 298 | 3.0 | 7.0 | 0.00 | 0.00 | 0.00 | 37 | 1005.9 |
| 20260504191338 | 75 | 313 | 3.0 | 9.0 | 0.00 | 0.00 | 0.00 | 36 | 1006.0 |
| 20260504190830 | 75 | 348 | 4.0 | 13.0 | 0.00 | 0.00 | 0.00 | 37 | 1006.1 |
| 20260504190324 | 74 | 297 | 4.0 | 13.0 | 0.00 | 0.00 | 0.00 | 35 | 1006.2 |
| 20260504185818 | 74 | 0 | 4.0 | 9.0 | 0.00 | 0.00 | 0.00 | 36 | 1006.2 |
| 20260504185749 | 74 | 15 | 3.0 | 9.0 | 0.00 | 0.00 | 0.00 | 35 | 1006.2 |
| 20260504184806 | 74 | 319 | 2.0 | 9.0 | 0.00 | 0.00 | 0.00 | 37 | 1006.2 |
| 20260504184302 | 74 | 326 | 2.0 | 5.0 | 0.00 | 0.00 | 0.00 | 40 | 1006.3 |
| 20260504183801 | 74 | 267 | 2.0 | 6.0 | 0.00 | 0.00 | 0.00 | 39 | 1006.3 |
| 20260504183259 | 74 | 327 | 3.0 | 9.0 | 0.00 | 0.00 | 0.00 | 40 | 1006.4 |
| 20260504183015 | 74 | 339 | 3.0 | 9.0 | 0.00 | 0.00 | 0.00 | 38 | 1006.3 |
| 20260504182257 | 73 | 331 | 3.0 | 9.0 | 0.00 | 0.00 | 0.00 | 39 | 1006.6 |
| 20260504181758 | 73 | 287 | 3.0 | 8.0 | 0.00 | 0.00 | 0.00 | 42 | 1006.7 |
| 20260504181255 | 73 | 297 | 2.0 | 9.0 | 0.00 | 0.00 | 0.00 | 40 | 1006.6 |
| 20260504180753 | 73 | 349 | 3.0 | 11.0 | 0.00 | 0.00 | 0.00 | 39 | 1006.7 |
| 20260504180253 | 72 | 277 | 3.0 | 11.0 | 0.00 | 0.00 | 0.00 | 40 | 1006.7 |
| 20260504175754 | 72 | 310 | 2.0 | 7.0 | 0.00 | 0.00 | 0.00 | 40 | 1006.7 |
| 20260504175252 | 72 | 313 | 3.0 | 11.0 | 0.00 | 0.00 | 0.00 | 41 | 1006.9 |
| 20260504174751 | 72 | 350 | 3.0 | 11.0 | 0.00 | 0.00 | 0.00 | 40 | 1007.0 |
| 20260504174251 | 71 | 305 | 3.0 | 9.0 | 0.00 | 0.00 | 0.00 | 41 | 1006.9 |